createdAt,value
2023-01-23T00:00:43.853Z,0
2023-01-23T00:01:43.854Z,0
2023-01-23T00:02:43.938Z,0
2023-01-23T00:03:43.893Z,0
2023-01-23T00:04:43.894Z,0
2023-01-23T00:05:43.864Z,0
2023-01-23T00:06:43.864Z,0
2023-01-23T00:07:43.865Z,0
2023-01-23T00:08:43.874Z,0
2023-01-23T00:09:43.993Z,0
2023-01-23T00:10:43.867Z,0
2023-01-23T00:11:43.870Z,0
2023-01-23T00:12:43.869Z,0
2023-01-23T00:13:43.871Z,0
2023-01-23T00:14:43.878Z,0
2023-01-23T00:15:43.913Z,0
2023-01-23T00:16:43.875Z,0
2023-01-23T00:17:43.879Z,0
2023-01-23T00:18:43.888Z,0
2023-01-23T00:19:43.881Z,0
2023-01-23T00:20:43.881Z,0
2023-01-23T00:21:43.883Z,0
2023-01-23T00:22:43.885Z,0
2023-01-23T00:23:43.891Z,0
2023-01-23T00:24:43.886Z,0
2023-01-23T00:25:44.022Z,0
2023-01-23T00:26:43.892Z,0
2023-01-23T00:27:43.893Z,0
2023-01-23T00:28:43.909Z,0
2023-01-23T00:29:43.903Z,0
2023-01-23T00:30:43.921Z,0
2023-01-23T00:31:44.022Z,0
2023-01-23T00:32:43.896Z,0
2023-01-23T00:33:43.915Z,0
2023-01-23T00:34:43.899Z,0
2023-01-23T00:35:43.901Z,0
2023-01-23T00:36:43.905Z,0
2023-01-23T00:37:43.944Z,0
2023-01-23T00:38:43.910Z,0
2023-01-23T00:39:43.905Z,0
2023-01-23T00:40:43.908Z,0
2023-01-23T00:41:44.027Z,0
2023-01-23T00:42:43.908Z,0
2023-01-23T00:43:43.907Z,0
2023-01-23T00:44:43.911Z,0
2023-01-23T00:45:43.921Z,0
2023-01-23T00:46:44.004Z,0
2023-01-23T00:47:43.915Z,0
2023-01-23T00:48:43.916Z,0
2023-01-23T00:49:43.919Z,0
2023-01-23T00:50:43.916Z,0
2023-01-23T00:51:43.919Z,0
2023-01-23T00:52:43.919Z,0
2023-01-23T00:53:43.920Z,0
2023-01-23T00:54:43.919Z,0
2023-01-23T00:55:43.929Z,0
2023-01-23T00:56:43.928Z,0
2023-01-23T00:57:44.044Z,0
2023-01-23T00:58:45.104Z,0
2023-01-23T00:59:43.937Z,0
2023-01-23T01:00:43.926Z,0
2023-01-23T01:01:43.973Z,0
2023-01-23T01:02:43.958Z,0
2023-01-23T01:03:43.928Z,0
2023-01-23T01:04:43.931Z,0
2023-01-23T01:05:43.934Z,0
2023-01-23T01:06:43.935Z,0
2023-01-23T01:07:43.929Z,0
2023-01-23T01:08:43.930Z,0
2023-01-23T01:09:43.934Z,0
2023-01-23T01:10:43.934Z,0
2023-01-23T01:11:43.936Z,0
2023-01-23T01:12:43.937Z,0
2023-01-23T01:13:44.054Z,0
2023-01-23T01:14:43.937Z,0
2023-01-23T01:15:43.988Z,0
2023-01-23T01:16:43.940Z,0
2023-01-23T01:17:43.940Z,0
2023-01-23T01:18:43.948Z,0
2023-01-23T01:19:43.939Z,0
2023-01-23T01:20:43.944Z,0
2023-01-23T01:21:43.963Z,0
2023-01-23T01:22:43.952Z,0
2023-01-23T01:23:43.947Z,0
2023-01-23T01:24:43.943Z,0
2023-01-23T01:25:43.943Z,0
2023-01-23T01:26:43.952Z,0
2023-01-23T01:27:43.950Z,0
2023-01-23T01:28:43.953Z,0
2023-01-23T01:29:44.101Z,0
2023-01-23T01:30:43.978Z,0
2023-01-23T01:31:43.971Z,0
2023-01-23T01:32:43.948Z,0
2023-01-23T01:33:43.996Z,0
2023-01-23T01:34:43.948Z,0
2023-01-23T01:35:43.951Z,0
2023-01-23T01:36:43.956Z,0
2023-01-23T01:37:43.951Z,0
2023-01-23T01:38:43.952Z,0
2023-01-23T01:39:43.953Z,0
2023-01-23T01:40:43.956Z,0
2023-01-23T01:41:43.960Z,0
2023-01-23T01:42:43.958Z,0
2023-01-23T01:43:43.952Z,0
2023-01-23T01:44:43.953Z,0
2023-01-23T01:45:44.071Z,0
2023-01-23T01:46:44.034Z,0
2023-01-23T01:47:43.963Z,0
2023-01-23T01:48:43.956Z,0
2023-01-23T01:49:43.955Z,0
2023-01-23T01:50:43.954Z,0
2023-01-23T01:51:43.978Z,0
2023-01-23T01:52:43.958Z,0
2023-01-23T01:53:43.954Z,0
2023-01-23T01:54:43.959Z,0
2023-01-23T01:55:43.956Z,0
2023-01-23T01:56:43.962Z,0
2023-01-23T01:57:43.958Z,0
2023-01-23T01:58:43.959Z,0
2023-01-23T01:59:43.960Z,0
2023-01-23T02:00:43.984Z,0
2023-01-23T02:01:44.114Z,0
2023-01-23T02:02:43.973Z,0
2023-01-23T02:03:43.964Z,0
2023-01-23T02:04:43.965Z,0
2023-01-23T02:05:43.963Z,0
2023-01-23T02:06:43.959Z,0
2023-01-23T02:07:43.961Z,0
2023-01-23T02:08:43.962Z,0
2023-01-23T02:09:43.963Z,0
2023-01-23T02:10:43.965Z,0
2023-01-23T02:11:43.968Z,0
2023-01-23T02:12:43.967Z,0
2023-01-23T02:13:43.967Z,0
2023-01-23T02:14:43.968Z,0
2023-01-23T02:15:43.968Z,0
2023-01-23T02:16:44.012Z,0
2023-01-23T02:17:44.095Z,0
2023-01-23T02:18:43.981Z,0
2023-01-23T02:19:43.977Z,0
2023-01-23T02:20:43.988Z,0
2023-01-23T02:21:43.980Z,0
2023-01-23T02:22:43.982Z,0
2023-01-23T02:23:43.981Z,0
2023-01-23T02:24:43.988Z,0
2023-01-23T02:25:44.031Z,0
2023-01-23T02:26:44.032Z,0
2023-01-23T02:27:43.987Z,0
2023-01-23T02:28:43.991Z,0
2023-01-23T02:29:43.996Z,0
2023-01-23T02:30:44.019Z,0
2023-01-23T02:31:44.041Z,0
2023-01-23T02:32:44.002Z,0
2023-01-23T02:33:44.118Z,0
2023-01-23T02:34:44.003Z,0
2023-01-23T02:35:44.001Z,0
2023-01-23T02:36:44.010Z,0
2023-01-23T02:37:44.004Z,0
2023-01-23T02:38:44.009Z,0
2023-01-23T02:39:44.011Z,0
2023-01-23T02:40:44.013Z,0
2023-01-23T02:41:44.017Z,0
2023-01-23T02:42:44.012Z,0
2023-01-23T02:43:44.015Z,0
2023-01-23T02:44:44.014Z,0
2023-01-23T02:45:44.079Z,0
2023-01-23T02:46:44.020Z,0
2023-01-23T02:47:44.020Z,0
2023-01-23T02:48:44.022Z,0
2023-01-23T02:49:44.154Z,0
2023-01-23T02:50:44.027Z,0
2023-01-23T02:51:44.027Z,0
2023-01-23T02:52:44.021Z,0
2023-01-23T02:53:44.036Z,0
2023-01-23T02:54:44.029Z,0
2023-01-23T02:55:44.036Z,0
2023-01-23T02:56:44.037Z,0
2023-01-23T02:57:44.037Z,0
2023-01-23T02:58:44.045Z,0
2023-01-23T02:59:44.047Z,0
2023-01-23T03:00:44.095Z,0
2023-01-23T03:01:44.080Z,0
2023-01-23T03:02:44.041Z,0
2023-01-23T03:03:44.039Z,0
2023-01-23T03:04:44.046Z,0
2023-01-23T03:05:44.165Z,0
2023-01-23T03:06:44.045Z,0
2023-01-23T03:07:44.041Z,0
2023-01-23T03:08:44.043Z,0
2023-01-23T03:09:44.046Z,0
2023-01-23T03:10:44.046Z,0
2023-01-23T03:11:44.051Z,0
2023-01-23T03:12:44.056Z,0
2023-01-23T03:13:44.051Z,0
2023-01-23T03:14:44.053Z,0
2023-01-23T03:15:44.050Z,0
2023-01-23T03:16:44.083Z,0
2023-01-23T03:17:44.055Z,0
2023-01-23T03:18:53.736Z,0
2023-01-23T03:19:44.057Z,0
2023-01-23T03:20:44.058Z,0
2023-01-23T03:21:44.181Z,0
2023-01-23T03:22:44.061Z,0
2023-01-23T03:23:44.060Z,0
2023-01-23T03:24:44.061Z,0
2023-01-23T03:25:44.066Z,0
2023-01-23T03:26:44.073Z,0
2023-01-23T03:27:44.068Z,0
2023-01-23T03:28:44.078Z,0
2023-01-23T03:29:44.080Z,0
2023-01-23T03:30:44.079Z,0
2023-01-23T03:31:44.123Z,0
2023-01-23T03:32:44.075Z,0
2023-01-23T03:33:44.076Z,0
2023-01-23T03:34:44.077Z,0
2023-01-23T03:35:44.081Z,0
2023-01-23T03:36:44.080Z,0
2023-01-23T03:37:44.223Z,0
2023-01-23T03:38:44.085Z,0
2023-01-23T03:39:44.086Z,0
2023-01-23T03:40:44.080Z,0
2023-01-23T03:41:44.089Z,0
2023-01-23T03:42:44.091Z,0
2023-01-23T03:43:44.103Z,0
2023-01-23T03:44:44.108Z,0
2023-01-23T03:45:44.120Z,0
2023-01-23T03:46:44.099Z,0
2023-01-23T03:47:44.099Z,0
2023-01-23T03:48:44.106Z,0
2023-01-23T03:49:44.100Z,0
2023-01-23T03:50:44.096Z,0
2023-01-23T03:51:44.104Z,0
2023-01-23T03:52:44.107Z,0
2023-01-23T03:53:44.231Z,0
2023-01-23T03:54:44.113Z,0
2023-01-23T03:55:44.108Z,0
2023-01-23T03:56:44.111Z,0
2023-01-23T03:57:44.117Z,0
2023-01-23T03:58:44.114Z,0
2023-01-23T03:59:44.115Z,0
2023-01-23T04:00:44.113Z,0
2023-01-23T04:01:44.133Z,0
2023-01-23T04:02:44.166Z,0
2023-01-23T04:03:44.125Z,0
2023-01-23T04:04:44.122Z,0
2023-01-23T04:05:44.120Z,0
2023-01-23T04:06:44.124Z,0
2023-01-23T04:07:44.135Z,0
2023-01-23T04:08:44.129Z,0
2023-01-23T04:09:44.262Z,0
2023-01-23T04:10:44.131Z,0
2023-01-23T04:11:44.133Z,0
2023-01-23T04:12:44.136Z,0
2023-01-23T04:13:44.134Z,0
2023-01-23T04:14:44.133Z,0
2023-01-23T04:15:44.136Z,0
2023-01-23T04:16:44.172Z,0
2023-01-23T04:17:44.151Z,0
2023-01-23T04:18:44.144Z,0
2023-01-23T04:19:44.145Z,0
2023-01-23T04:20:44.140Z,0
2023-01-23T04:21:44.147Z,0
2023-01-23T04:22:44.153Z,0
2023-01-23T04:23:44.155Z,0
2023-01-23T04:24:44.155Z,0
2023-01-23T04:25:44.269Z,0
2023-01-23T04:26:44.158Z,0
2023-01-23T04:27:44.157Z,0
2023-01-23T04:28:44.164Z,0
2023-01-23T04:29:44.160Z,0
2023-01-23T04:30:44.214Z,0
2023-01-23T04:31:44.217Z,0
2023-01-23T04:32:44.169Z,0
2023-01-23T04:33:44.171Z,0
2023-01-23T04:34:44.184Z,0
2023-01-23T04:35:44.179Z,0
2023-01-23T04:36:44.176Z,0
2023-01-23T04:37:44.180Z,0
2023-01-23T04:38:44.184Z,0
2023-01-23T04:39:44.181Z,0
2023-01-23T04:40:44.184Z,0
2023-01-23T04:41:44.310Z,0
2023-01-23T04:42:44.187Z,0
2023-01-23T04:43:44.186Z,0
2023-01-23T04:44:44.189Z,0
2023-01-23T04:45:44.254Z,0
2023-01-23T04:46:44.194Z,0
2023-01-23T04:47:44.192Z,0
2023-01-23T04:48:44.199Z,0
2023-01-23T04:49:44.206Z,0
2023-01-23T04:50:44.199Z,0
2023-01-23T04:51:44.201Z,0
2023-01-23T04:52:44.210Z,0
2023-01-23T04:53:44.204Z,0
2023-01-23T04:54:44.206Z,0
2023-01-23T04:55:44.201Z,0
2023-01-23T04:56:44.206Z,0
2023-01-23T04:57:44.330Z,0
2023-01-23T04:58:44.212Z,0
2023-01-23T04:59:44.214Z,0
2023-01-23T05:00:44.216Z,0
2023-01-23T05:01:44.216Z,0
2023-01-23T05:02:44.228Z,0
2023-01-23T05:03:44.220Z,0
2023-01-23T05:04:44.222Z,0
2023-01-23T05:05:44.263Z,0
2023-01-23T05:06:44.227Z,0
2023-01-23T05:07:44.225Z,0
2023-01-23T05:08:44.224Z,0
2023-01-23T05:09:44.224Z,0
2023-01-23T05:10:44.229Z,0
2023-01-23T05:11:44.224Z,0
2023-01-23T05:12:44.231Z,0
2023-01-23T05:13:44.378Z,0
2023-01-23T05:14:44.227Z,0
2023-01-23T05:15:44.251Z,0
2023-01-23T05:16:44.233Z,0
2023-01-23T05:17:44.236Z,0
2023-01-23T05:18:44.233Z,0
2023-01-23T05:19:44.229Z,0
2023-01-23T05:20:44.243Z,0
2023-01-23T05:21:44.237Z,0
2023-01-23T05:22:44.240Z,0
2023-01-23T05:23:44.248Z,0
2023-01-23T05:24:44.243Z,0
2023-01-23T05:25:44.242Z,0
2023-01-23T05:26:44.252Z,0
2023-01-23T05:27:44.252Z,0
2023-01-23T05:28:44.251Z,0
2023-01-23T05:29:44.371Z,0
2023-01-23T05:30:44.334Z,0
2023-01-23T05:31:44.384Z,0
2023-01-23T05:32:44.257Z,0
2023-01-23T05:33:44.255Z,0
2023-01-23T05:34:44.259Z,0
2023-01-23T05:35:44.260Z,0
2023-01-23T05:36:44.269Z,0
2023-01-23T05:37:44.271Z,0
2023-01-23T05:38:44.268Z,0
2023-01-23T05:39:44.276Z,0
2023-01-23T05:40:44.275Z,0
2023-01-23T05:41:44.274Z,0
2023-01-23T05:42:44.270Z,0
2023-01-23T05:43:44.275Z,0
2023-01-23T05:44:44.272Z,0
2023-01-23T05:45:44.391Z,0
2023-01-23T05:46:44.276Z,0
2023-01-23T05:47:44.285Z,0
2023-01-23T05:48:44.278Z,0
2023-01-23T05:49:44.279Z,0
2023-01-23T05:50:44.278Z,0
2023-01-23T05:51:44.281Z,0
2023-01-23T05:52:44.282Z,0
2023-01-23T05:53:44.288Z,0
2023-01-23T05:54:44.286Z,0
2023-01-23T05:55:44.293Z,0
2023-01-23T05:56:44.301Z,0
2023-01-23T05:57:44.288Z,0
2023-01-23T05:58:44.316Z,0
2023-01-23T05:59:44.296Z,0
2023-01-23T06:00:44.295Z,0
2023-01-23T06:01:44.424Z,0
2023-01-23T06:02:44.329Z,0
2023-01-23T06:03:44.374Z,0
2023-01-23T06:04:44.297Z,0
2023-01-23T06:05:44.300Z,0
2023-01-23T06:06:44.298Z,0
2023-01-23T06:07:44.303Z,0
2023-01-23T06:08:44.302Z,0
2023-01-23T06:09:44.301Z,0
2023-01-23T06:10:44.309Z,0
2023-01-23T06:11:44.309Z,0
2023-01-23T06:12:44.311Z,0
2023-01-23T06:13:44.308Z,0
2023-01-23T06:14:44.313Z,0
2023-01-23T06:15:44.333Z,0
2023-01-23T06:16:44.316Z,0
2023-01-23T06:17:44.541Z,0
2023-01-23T06:18:44.319Z,0
2023-01-23T06:19:44.320Z,0
2023-01-23T06:20:44.321Z,0
2023-01-23T06:21:44.321Z,0
2023-01-23T06:22:44.326Z,2
2023-01-23T06:23:44.326Z,2
2023-01-23T06:24:44.329Z,2
2023-01-23T06:25:44.326Z,2
2023-01-23T06:26:44.329Z,2
2023-01-23T06:27:44.327Z,4
2023-01-23T06:28:44.329Z,4
2023-01-23T06:29:44.323Z,4
2023-01-23T06:30:44.360Z,4
2023-01-23T06:31:44.368Z,4
2023-01-23T06:32:44.330Z,4
2023-01-23T06:33:44.453Z,10
2023-01-23T06:34:44.334Z,10
2023-01-23T06:35:44.333Z,10
2023-01-23T06:36:44.336Z,10
2023-01-23T06:37:44.330Z,10
2023-01-23T06:38:44.333Z,18
2023-01-23T06:39:44.332Z,18
2023-01-23T06:40:44.332Z,18
2023-01-23T06:41:44.339Z,18
2023-01-23T06:42:44.336Z,18
2023-01-23T06:43:44.336Z,31
2023-01-23T06:44:44.341Z,31
2023-01-23T06:45:44.345Z,31
2023-01-23T06:46:44.347Z,31
2023-01-23T06:47:44.340Z,31
2023-01-23T06:48:44.345Z,46
2023-01-23T06:49:44.477Z,46
2023-01-23T06:50:44.361Z,46
2023-01-23T06:51:44.342Z,46
2023-01-23T06:52:44.347Z,46
2023-01-23T06:53:44.352Z,63
2023-01-23T06:54:44.351Z,63
2023-01-23T06:55:44.349Z,63
2023-01-23T06:56:44.364Z,63
2023-01-23T06:57:44.353Z,63
2023-01-23T06:58:44.356Z,96
2023-01-23T06:59:44.354Z,96
2023-01-23T07:00:44.379Z,96
2023-01-23T07:01:44.410Z,96
2023-01-23T07:02:45.679Z,96
2023-01-23T07:03:44.354Z,137
2023-01-23T07:04:44.360Z,137
2023-01-23T07:05:44.474Z,137
2023-01-23T07:06:44.362Z,137
2023-01-23T07:07:44.360Z,137
2023-01-23T07:08:44.365Z,192
2023-01-23T07:09:44.360Z,192
2023-01-23T07:10:44.357Z,192
2023-01-23T07:11:44.362Z,192
2023-01-23T07:12:44.364Z,192
2023-01-23T07:13:44.362Z,251
2023-01-23T07:14:44.365Z,251
2023-01-23T07:15:44.362Z,251
2023-01-23T07:16:44.364Z,251
2023-01-23T07:17:44.372Z,251
2023-01-23T07:18:44.363Z,317
2023-01-23T07:19:44.368Z,317
2023-01-23T07:20:44.361Z,317
2023-01-23T07:21:44.468Z,317
2023-01-23T07:22:44.365Z,317
2023-01-23T07:23:44.365Z,365
2023-01-23T07:24:44.366Z,365
2023-01-23T07:25:44.369Z,365
2023-01-23T07:26:44.376Z,365
2023-01-23T07:27:44.363Z,365
2023-01-23T07:28:44.371Z,424
2023-01-23T07:29:44.368Z,424
2023-01-23T07:30:44.402Z,424
2023-01-23T07:31:44.388Z,424
2023-01-23T07:32:44.369Z,424
2023-01-23T07:33:44.370Z,540
2023-01-23T07:34:44.371Z,540
2023-01-23T07:35:44.367Z,540
2023-01-23T07:36:44.392Z,540
2023-01-23T07:37:44.390Z,540
2023-01-23T07:38:44.364Z,661
2023-01-23T07:39:44.370Z,661
2023-01-23T07:40:44.393Z,661
2023-01-23T07:41:46.229Z,661
2023-01-23T07:42:44.366Z,661
2023-01-23T07:43:44.369Z,731
2023-01-23T07:44:44.364Z,731
2023-01-23T07:45:44.366Z,731
2023-01-23T07:46:44.383Z,731
2023-01-23T07:47:45.661Z,731
2023-01-23T07:48:44.369Z,773
2023-01-23T07:49:44.380Z,773
2023-01-23T07:50:44.370Z,773
2023-01-23T07:51:44.371Z,773
2023-01-23T07:52:44.371Z,773
2023-01-23T07:53:44.500Z,820
2023-01-23T07:54:44.383Z,820
2023-01-23T07:55:44.388Z,820
2023-01-23T07:56:44.380Z,820
2023-01-23T07:57:44.382Z,820
2023-01-23T07:58:44.395Z,965
2023-01-23T07:59:44.384Z,965
2023-01-23T08:00:44.428Z,965
2023-01-23T08:01:44.388Z,965
2023-01-23T08:02:44.393Z,965
2023-01-23T08:03:44.438Z,1113
2023-01-23T08:04:44.390Z,1113
2023-01-23T08:05:44.394Z,1113
2023-01-23T08:06:44.394Z,1113
2023-01-23T08:07:44.396Z,1113
2023-01-23T08:08:44.397Z,1245
2023-01-23T08:09:44.519Z,1245
2023-01-23T08:10:44.401Z,1245
2023-01-23T08:11:44.414Z,1245
2023-01-23T08:12:44.401Z,1245
2023-01-23T08:13:44.399Z,1492
2023-01-23T08:14:44.399Z,1492
2023-01-23T08:15:44.403Z,1492
2023-01-23T08:16:44.430Z,1492
2023-01-23T08:17:44.406Z,1492
2023-01-23T08:18:44.413Z,1475
2023-01-23T08:19:44.409Z,1475
2023-01-23T08:20:44.423Z,1475
2023-01-23T08:21:44.414Z,1475
2023-01-23T08:22:44.413Z,1475
2023-01-23T08:23:44.425Z,1318
2023-01-23T08:24:44.421Z,1318
2023-01-23T08:25:44.543Z,1318
2023-01-23T08:26:44.425Z,1318
2023-01-23T08:27:44.440Z,1318
2023-01-23T08:28:44.426Z,1214
2023-01-23T08:29:44.425Z,1214
2023-01-23T08:30:44.462Z,1214
2023-01-23T08:31:44.464Z,1214
2023-01-23T08:32:44.434Z,1214
2023-01-23T08:33:44.430Z,1299
2023-01-23T08:34:44.430Z,1299
2023-01-23T08:35:44.430Z,1299
2023-01-23T08:36:44.434Z,1299
2023-01-23T08:37:44.434Z,1299
2023-01-23T08:38:44.438Z,1303
2023-01-23T08:39:44.453Z,1303
2023-01-23T08:40:44.447Z,1303
2023-01-23T08:41:44.589Z,1303
2023-01-23T08:42:44.443Z,1303
2023-01-23T08:43:44.470Z,1121
2023-01-23T08:44:44.461Z,1121
2023-01-23T08:45:44.487Z,1121
2023-01-23T08:46:44.456Z,1121
2023-01-23T08:47:44.457Z,1121
2023-01-23T08:48:44.472Z,1069
2023-01-23T08:49:44.462Z,1069
2023-01-23T08:50:44.459Z,1069
2023-01-23T08:51:44.469Z,1069
2023-01-23T08:52:44.461Z,1069
2023-01-23T08:53:44.462Z,1463
2023-01-23T08:54:44.468Z,1463
2023-01-23T08:55:44.470Z,1463
2023-01-23T08:56:44.467Z,1463
2023-01-23T08:57:44.595Z,3882
2023-01-23T08:58:44.472Z,3904
2023-01-23T08:59:44.476Z,3904
2023-01-23T09:00:44.548Z,3904
2023-01-23T09:01:44.528Z,3904
2023-01-23T09:02:44.478Z,3431
2023-01-23T09:03:44.486Z,3431
2023-01-23T09:04:44.476Z,3431
2023-01-23T09:05:44.478Z,3431
2023-01-23T09:06:44.478Z,3431
2023-01-23T09:07:44.479Z,2473
2023-01-23T09:08:44.484Z,2473
2023-01-23T09:09:44.495Z,2473
2023-01-23T09:10:44.488Z,2473
2023-01-23T09:11:44.495Z,2473
2023-01-23T09:12:44.493Z,1891
2023-01-23T09:13:44.611Z,1891
2023-01-23T09:14:44.499Z,1891
2023-01-23T09:15:44.495Z,1891
2023-01-23T09:16:44.611Z,1891
2023-01-23T09:17:44.492Z,2438
2023-01-23T09:18:44.538Z,2438
2023-01-23T09:19:44.493Z,2438
2023-01-23T09:20:44.495Z,2438
2023-01-23T09:21:44.495Z,2438
2023-01-23T09:22:44.490Z,3193
2023-01-23T09:23:44.510Z,3193
2023-01-23T09:24:44.496Z,3193
2023-01-23T09:25:44.503Z,3193
2023-01-23T09:26:44.503Z,3193
2023-01-23T09:27:44.504Z,3221
2023-01-23T09:28:44.506Z,3221
2023-01-23T09:29:44.627Z,3221
2023-01-23T09:30:44.548Z,3221
2023-01-23T09:31:44.575Z,3221
2023-01-23T09:32:44.509Z,3348
2023-01-23T09:33:44.513Z,3348
2023-01-23T09:34:44.520Z,3348
2023-01-23T09:35:44.511Z,3348
2023-01-23T09:36:44.518Z,3348
2023-01-23T09:37:44.518Z,3156
2023-01-23T09:38:44.523Z,3156
2023-01-23T09:39:44.522Z,3156
2023-01-23T09:40:44.524Z,3156
2023-01-23T09:41:44.529Z,3156
2023-01-23T09:42:44.527Z,2904
2023-01-23T09:43:44.531Z,2904
2023-01-23T09:44:44.531Z,2904
2023-01-23T09:45:44.685Z,2904
2023-01-23T09:46:44.537Z,2904
2023-01-23T09:47:44.537Z,3070
2023-01-23T09:48:44.585Z,3070
2023-01-23T09:49:44.548Z,3070
2023-01-23T09:50:44.542Z,3070
2023-01-23T09:51:44.552Z,3070
2023-01-23T09:52:44.547Z,3607
2023-01-23T09:53:44.546Z,3607
2023-01-23T09:54:44.668Z,3607
2023-01-23T09:55:44.544Z,3607
2023-01-23T09:56:44.553Z,3607
2023-01-23T09:57:44.546Z,3252
2023-01-23T09:58:44.545Z,3252
2023-01-23T09:59:58.578Z,3252
2023-01-23T10:00:44.549Z,3252
2023-01-23T10:01:44.689Z,3252
2023-01-23T10:02:44.635Z,3252
2023-01-23T10:03:44.558Z,2997
2023-01-23T10:04:44.560Z,2997
2023-01-23T10:05:44.561Z,2997
2023-01-23T10:06:44.562Z,2997
2023-01-23T10:07:44.566Z,2997
2023-01-23T10:08:44.565Z,2844
2023-01-23T10:09:44.568Z,2844
2023-01-23T10:10:44.574Z,2844
2023-01-23T10:11:44.566Z,2844
2023-01-23T10:12:44.572Z,2844
2023-01-23T10:13:44.587Z,4257
2023-01-23T10:14:44.576Z,4257
2023-01-23T10:15:44.577Z,4257
2023-01-23T10:16:50.235Z,4257
2023-01-23T10:17:44.699Z,4257
2023-01-23T10:18:44.575Z,5673
2023-01-23T10:19:44.621Z,5673
2023-01-23T10:20:44.586Z,5673
2023-01-23T10:21:44.584Z,5673
2023-01-23T10:22:44.592Z,5673
2023-01-23T10:23:44.588Z,8387
2023-01-23T10:24:45.641Z,8387
2023-01-23T10:25:44.604Z,8387
2023-01-23T10:26:44.589Z,8387
2023-01-23T10:27:44.600Z,8387
2023-01-23T10:28:44.593Z,5041
2023-01-23T10:29:44.599Z,5041
2023-01-23T10:30:44.666Z,8045
2023-01-23T10:31:44.710Z,7969
2023-01-23T10:32:44.602Z,7969
2023-01-23T10:33:44.735Z,7969
2023-01-23T10:34:44.604Z,8398
2023-01-23T10:35:44.643Z,8074
2023-01-23T10:36:53.787Z,8074
2023-01-23T10:37:44.604Z,8074
2023-01-23T10:38:44.609Z,8074
2023-01-23T10:39:44.607Z,8074
2023-01-23T10:40:44.604Z,4879
2023-01-23T10:41:46.343Z,4879
2023-01-23T10:42:44.615Z,4879
2023-01-23T10:43:44.617Z,5218
2023-01-23T10:44:44.615Z,5218
2023-01-23T10:45:44.668Z,5218
2023-01-23T10:46:44.618Z,5218
2023-01-23T10:47:46.287Z,5218
2023-01-23T10:48:44.624Z,7842
2023-01-23T10:49:44.742Z,7842
2023-01-23T10:50:44.621Z,7842
2023-01-23T10:51:44.623Z,7842
2023-01-23T10:52:44.620Z,7842
2023-01-23T10:53:44.626Z,5032
2023-01-23T10:54:44.626Z,5032
2023-01-23T10:55:44.627Z,5032
2023-01-23T10:56:44.632Z,5032
2023-01-23T10:57:44.630Z,5032
2023-01-23T10:58:44.632Z,6194
2023-01-23T10:59:44.633Z,6194
2023-01-23T11:00:44.635Z,6194
2023-01-23T11:01:53.141Z,6194
2023-01-23T11:02:44.638Z,6194
2023-01-23T11:03:44.639Z,11293
2023-01-23T11:04:44.636Z,11293
2023-01-23T11:05:52.392Z,11293
2023-01-23T11:06:44.639Z,11293
2023-01-23T11:07:44.640Z,11293
2023-01-23T11:08:44.641Z,11590
2023-01-23T11:09:44.643Z,11590
2023-01-23T11:10:44.642Z,11590
2023-01-23T11:11:44.649Z,10929
2023-01-23T11:12:44.645Z,10929
2023-01-23T11:13:44.689Z,10929
2023-01-23T11:14:44.648Z,10929
2023-01-23T11:15:44.737Z,10929
2023-01-23T11:16:44.670Z,7963
2023-01-23T11:17:44.656Z,5601
2023-01-23T11:18:44.658Z,5601
2023-01-23T11:19:44.654Z,5229
2023-01-23T11:20:44.652Z,5695
2023-01-23T11:21:44.680Z,6863
2023-01-23T11:22:44.654Z,10914
2023-01-23T11:23:44.651Z,11379
2023-01-23T11:24:44.657Z,11543
2023-01-23T11:25:44.654Z,11543
2023-01-23T11:26:44.657Z,11543
2023-01-23T11:27:44.660Z,11543
2023-01-23T11:28:44.666Z,11102
2023-01-23T11:29:44.663Z,11102
2023-01-23T11:30:44.752Z,11102
2023-01-23T11:31:44.799Z,10120
2023-01-23T11:32:44.663Z,10120
2023-01-23T11:33:44.662Z,10120
2023-01-23T11:34:44.664Z,10120
2023-01-23T11:35:44.668Z,10120
2023-01-23T11:36:44.667Z,4308
2023-01-23T11:37:44.794Z,4308
2023-01-23T11:38:51.962Z,4308
2023-01-23T11:39:44.669Z,4308
2023-01-23T11:40:44.669Z,4308
2023-01-23T11:41:44.674Z,3940
2023-01-23T11:42:44.673Z,11455
2023-01-23T11:43:44.681Z,10634
2023-01-23T11:44:46.290Z,10634
2023-01-23T11:45:44.692Z,10634
2023-01-23T11:46:44.680Z,10634
2023-01-23T11:47:44.688Z,10634
2023-01-23T11:48:44.680Z,9032
2023-01-23T11:49:44.680Z,6104
2023-01-23T11:50:54.734Z,6104
2023-01-23T11:51:44.687Z,6104
2023-01-23T11:52:44.685Z,6104
2023-01-23T11:53:44.907Z,6104
2023-01-23T11:54:44.687Z,8498
2023-01-23T11:55:44.687Z,8498
2023-01-23T11:56:44.689Z,8498
2023-01-23T11:57:44.700Z,8498
2023-01-23T11:58:49.608Z,8498
2023-01-23T11:59:44.694Z,7551
2023-01-23T12:00:44.697Z,7551
2023-01-23T12:01:49.215Z,7551
2023-01-23T12:02:44.695Z,7551
2023-01-23T12:03:44.739Z,7551
2023-01-23T12:04:44.699Z,6159
2023-01-23T12:05:44.695Z,6159
2023-01-23T12:06:44.709Z,6159
2023-01-23T12:07:44.704Z,6159
2023-01-23T12:08:44.705Z,6159
2023-01-23T12:09:44.831Z,7394
2023-01-23T12:10:44.713Z,7394
2023-01-23T12:11:45.753Z,7394
2023-01-23T12:12:44.707Z,7394
2023-01-23T12:13:44.718Z,7394
2023-01-23T12:14:44.705Z,4684
2023-01-23T12:15:44.819Z,4684
2023-01-23T12:16:44.707Z,4684
2023-01-23T12:17:44.727Z,4684
2023-01-23T12:18:44.717Z,9166
2023-01-23T12:19:44.716Z,5782
2023-01-23T12:20:45.693Z,10972
2023-01-23T12:21:44.712Z,10972
2023-01-23T12:22:44.722Z,10972
2023-01-23T12:23:44.717Z,10972
2023-01-23T12:24:44.723Z,10972
2023-01-23T12:25:44.862Z,9508
2023-01-23T12:26:44.725Z,9508
2023-01-23T12:27:44.713Z,9508
2023-01-23T12:28:44.721Z,9508
2023-01-23T12:29:44.732Z,9508
2023-01-23T12:30:44.721Z,8819
2023-01-23T12:31:44.807Z,8819
2023-01-23T12:32:44.717Z,8819
2023-01-23T12:33:44.725Z,8819
2023-01-23T12:34:44.722Z,8819
2023-01-23T12:35:44.722Z,4952
2023-01-23T12:37:05.666Z,4952
2023-01-23T12:37:44.723Z,4952
2023-01-23T12:38:44.722Z,4952
2023-01-23T12:39:44.732Z,4952
2023-01-23T12:40:44.736Z,2955
2023-01-23T12:41:44.849Z,2955
2023-01-23T12:42:44.727Z,2955
2023-01-23T12:43:44.734Z,2955
2023-01-23T12:44:44.730Z,2955
2023-01-23T12:45:44.731Z,3740
2023-01-23T12:46:44.761Z,3740
2023-01-23T12:47:44.733Z,3740
2023-01-23T12:48:44.734Z,3740
2023-01-23T12:49:44.735Z,3740
2023-01-23T12:50:44.816Z,3205
2023-01-23T12:51:44.734Z,3205
2023-01-23T12:52:44.734Z,3205
2023-01-23T12:53:44.730Z,3205
2023-01-23T12:54:44.731Z,3205
2023-01-23T12:55:44.735Z,3160
2023-01-23T12:56:44.740Z,3160
2023-01-23T12:57:52.392Z,3160
2023-01-23T12:58:44.738Z,3160
2023-01-23T12:59:44.742Z,3160
2023-01-23T13:00:44.779Z,3220
2023-01-23T13:01:44.793Z,3220
2023-01-23T13:02:44.736Z,3220
2023-01-23T13:03:46.807Z,3220
2023-01-23T13:04:44.746Z,3220
2023-01-23T13:05:44.745Z,4507
2023-01-23T13:06:45.172Z,4507
2023-01-23T13:07:44.738Z,4751
2023-01-23T13:08:58.221Z,4680
2023-01-23T13:09:44.738Z,4680
2023-01-23T13:10:44.736Z,4680
2023-01-23T13:11:44.737Z,4680
2023-01-23T13:12:44.739Z,4680
2023-01-23T13:13:44.858Z,4208
2023-01-23T13:15:06.690Z,4208
2023-01-23T13:15:44.948Z,4208
2023-01-23T13:16:44.784Z,4208
2023-01-23T13:17:44.739Z,4208
2023-01-23T13:18:44.741Z,3354
2023-01-23T13:19:44.741Z,3354
2023-01-23T13:20:44.743Z,3354
2023-01-23T13:21:44.737Z,3354
2023-01-23T13:22:44.740Z,3354
2023-01-23T13:23:44.736Z,2972
2023-01-23T13:24:44.741Z,2972
2023-01-23T13:25:44.742Z,2972
2023-01-23T13:26:44.740Z,2972
2023-01-23T13:27:44.754Z,2972
2023-01-23T13:28:46.366Z,3226
2023-01-23T13:29:44.894Z,3226
2023-01-23T13:30:44.749Z,3226
2023-01-23T13:31:44.871Z,3226
2023-01-23T13:32:44.745Z,2476
2023-01-23T13:33:44.749Z,2476
2023-01-23T13:34:44.747Z,2476
2023-01-23T13:35:44.774Z,2476
2023-01-23T13:36:44.750Z,2476
2023-01-23T13:37:44.753Z,3561
2023-01-23T13:38:44.750Z,3561
2023-01-23T13:39:44.835Z,3561
2023-01-23T13:40:45.119Z,3561
2023-01-23T13:41:44.760Z,3561
2023-01-23T13:42:44.768Z,3787
2023-01-23T13:43:44.762Z,3787
2023-01-23T13:44:44.765Z,3787
2023-01-23T13:45:44.963Z,3787
2023-01-23T13:46:44.765Z,3787
2023-01-23T13:47:44.763Z,2105
2023-01-23T13:48:44.763Z,2105
2023-01-23T13:49:44.769Z,2105
2023-01-23T13:50:44.772Z,2105
2023-01-23T13:51:44.775Z,2105
2023-01-23T13:52:44.771Z,2284
2023-01-23T13:53:44.774Z,2284
2023-01-23T13:54:44.777Z,2284
2023-01-23T13:55:44.774Z,2284
2023-01-23T13:56:44.781Z,2284
2023-01-23T13:57:44.777Z,1570
2023-01-23T13:58:44.789Z,1570
2023-01-23T13:59:44.784Z,1570
2023-01-23T14:00:44.786Z,1570